Time;durP1;ratioP1;P1;durP2;ratioP2;P2;SDS_P1;SDS_P2;PMS_P1;PMS_P2;Temp;Humidity;BMP_temperature;BMP_pressure;BME280_temperature;BME280_humidity;BME280_pressure;Samples;Min_cycle;Max_cycle;Signal;HPM_P1;HPM_P2
2022/04/27 00:00:03;;;;;;;;;;;;;;;3.37;100.00;96079.34;1022705;28;19918;-71
2022/04/27 00:00:34;;;;;;;;;;;;;;;3.41;100.00;96082.31;1024697;28;19917;-71
2022/04/27 00:01:04;;;;;;;;;;;;;;;3.37;100.00;96084.53;1018442;29;19918;-71
2022/04/27 00:01:36;;;;;;;;;;;;;;;3.36;100.00;96076.97;1014794;29;20360;-71
2022/04/27 00:02:08;;;;;;;;;;;;;;;3.35;100.00;96078.75;1016233;29;20730;-71
2022/04/27 00:02:38;;;;;;;;;;;;;;;3.36;100.00;96080.38;1023006;28;19914;-71
2022/04/27 00:03:09;;;;;;;;;;;;;;;3.42;100.00;96076.94;1027295;28;19911;-71
2022/04/27 00:03:39;;;;;;;;;;;;;;;3.41;100.00;96082.31;1030557;28;19914;-71
2022/04/27 00:04:09;;;;;;;;;;;;;;;3.41;100.00;96075.34;1029840;28;19968;-69
2022/04/27 00:04:40;;;;;;;;;;;;;;;3.45;100.00;96073.91;1030820;28;19909;-71
2022/04/27 00:05:10;;;;;;;;;;;;;;;3.45;100.00;96075.72;1022424;28;19969;-72
2022/04/27 00:05:40;;;;;;;;;;;;;;;3.50;100.00;96079.28;1022608;28;19915;-71
2022/04/27 00:06:11;;;;;;;;;;;;;;;3.51;100.00;96080.84;1026844;28;19916;-71
2022/04/27 00:06:41;;;;;;;;;;;;;;;3.50;100.00;96076.69;1025909;28;19914;-72
2022/04/27 00:07:11;;;;;;;;;;;;;;;3.51;100.00;96075.66;1026570;28;20031;-71
2022/04/27 00:07:42;;;;;;;;;;;;;;;3.49;100.00;96079.50;1026553;28;19929;-71
2022/04/27 00:08:12;;;;;;;;;;;;;;;3.45;100.00;96076.50;1026775;28;19918;-71
2022/04/27 00:08:42;;;;;;;;;;;;;;;3.46;100.00;96075.50;1022720;29;20279;-71
2022/04/27 00:09:13;;;;;;;;;;;;;;;3.45;100.00;96066.13;1025393;28;19921;-71
2022/04/27 00:09:44;;;;;;;;;;;;;;;3.42;100.00;96076.94;1026528;28;19932;-68
2022/04/27 00:10:14;;;;;;;;;;;;;;;3.40;100.00;96081.53;1022850;28;20418;-72
2022/04/27 00:10:45;;;;;;;;;;;;;;;3.38;100.00;96075.75;1026348;28;19917;-71
2022/04/27 00:11:15;;;;;;;;;;;;;;;3.39;100.00;96077.34;1026567;28;19914;-71
2022/04/27 00:11:46;;;;;;;;;;;;;;;3.41;100.00;96080.53;1022757;28;19986;-71
2022/04/27 00:12:16;;;;;;;;;;;;;;;3.40;100.00;96076.34;1026696;28;19938;-72
2022/04/27 00:12:47;;;;;;;;;;;;;;;3.40;100.00;96078.16;1022664;28;20392;-71
2022/04/27 00:13:17;;;;;;;;;;;;;;;3.42;100.00;96082.13;1018817;29;20622;-69
2022/04/27 00:13:47;;;;;;;;;;;;;;;3.46;100.00;96079.91;1022581;29;19946;-69
2022/04/27 00:14:18;;;;;;;;;;;;;;;3.51;100.00;96080.06;1025793;28;19952;-69
2022/04/27 00:14:51;;;;;;;;;;;;;;;3.53;100.00;96084.06;1026964;28;19936;-71
2022/04/27 00:15:23;;;;;;;;;;;;;;;3.56;100.00;96082.06;1022646;28;20384;-71
2022/04/27 00:15:53;;;;;;;;;;;;;;;3.58;100.00;96080.03;1021278;28;20730;-71
2022/04/27 00:16:23;;;;;;;;;;;;;;;3.57;100.00;96081.03;1017967;29;19922;-71
2022/04/27 00:16:54;;;;;;;;;;;;;;;3.59;100.00;96081.59;1017569;28;19976;-68
2022/04/27 00:17:24;;;;;;;;;;;;;;;3.60;100.00;96083.22;1022138;28;19923;-70
2022/04/27 00:17:55;;;;;;;;;;;;;;;3.57;100.00;96078.44;1022450;29;19914;-69
2022/04/27 00:18:25;;;;;;;;;;;;;;;3.56;100.00;96084.66;1022776;29;19929;-70
2022/04/27 00:18:55;;;;;;;;;;;;;;;3.56;100.00;96076.88;1022657;28;19910;-69
2022/04/27 00:19:25;;;;;;;;;;;;;;;3.58;100.00;96082.63;1026715;28;19914;-72
2022/04/27 00:19:56;;;;;;;;;;;;;;;3.57;100.00;96078.44;1026643;28;20004;-69
2022/04/27 00:20:26;;;;;;;;;;;;;;;3.55;100.00;96081.22;1026535;28;19915;-70
2022/04/27 00:20:56;;;;;;;;;;;;;;;3.58;100.00;96080.03;1024310;28;19914;-70
2022/04/27 00:21:27;;;;;;;;;;;;;;;3.58;100.00;96078.22;1022236;28;20098;-69
2022/04/27 00:21:57;;;;;;;;;;;;;;;3.60;100.00;96080.63;1018686;29;19911;-69
2022/04/27 00:22:27;;;;;;;;;;;;;;;3.58;100.00;96074.84;1018597;29;19907;-69
2022/04/27 00:22:58;;;;;;;;;;;;;;;3.59;100.00;96077.25;1022554;29;19911;-69
2022/04/27 00:23:30;;;;;;;;;;;;;;;3.60;100.00;96078.03;1026255;28;19914;-71
2022/04/27 00:24:03;;;;;;;;;;;;;;;3.63;100.00;96072.41;1026743;28;19906;-71
2022/04/27 00:24:33;;;;;;;;;;;;;;;3.62;100.00;96076.81;1025854;28;19922;-69
2022/04/27 00:25:04;;;;;;;;;;;;;;;3.62;100.00;96081.19;1022899;28;19915;-68
2022/04/27 00:25:34;;;;;;;;;;;;;;;3.62;100.00;96076.00;1022416;29;20029;-69
2022/04/27 00:26:04;;;;;;;;;;;;;;;3.61;100.00;96079.59;1022484;29;20360;-71
2022/04/27 00:26:35;;;;;;;;;;;;;;;3.60;100.00;96081.41;1030220;28;20397;-68
2022/04/27 00:27:06;;;;;;;;;;;;;;;3.59;100.00;96071.22;1030516;28;19921;-71
2022/04/27 00:27:36;;;;;;;;;;;;;;;3.29;100.00;96035.53;1030428;28;19917;-73
2022/04/27 00:28:07;;;;;;;;;;;;;;;3.60;100.00;96078.03;1027428;28;19950;-71
2022/04/27 00:28:37;;;;;;;;;;;;;;;3.61;100.00;96080.41;1030462;28;19910;-71
2022/04/27 00:29:07;;;;;;;;;;;;;;;3.59;100.00;96079.84;1031099;28;19921;-71
2022/04/27 00:29:38;;;;;;;;;;;;;;;3.59;100.00;96076.41;1027244;28;19917;-71
2022/04/27 00:30:08;;;;;;;;;;;;;;;3.58;100.00;96078.22;1027008;28;19920;-71
2022/04/27 00:30:39;;;;;;;;;;;;;;;3.22;100.00;96025.19;1027492;28;19910;-69
2022/04/27 00:31:09;;;;;;;;;;;;;;;3.61;100.00;96074.41;1027207;28;19915;-72
2022/04/27 00:31:39;;;;;;;;;;;;;;;3.59;100.00;96072.03;1027464;28;19910;-71
2022/04/27 00:32:09;;;;;;;;;;;;;;;3.58;100.00;96075.63;1027348;28;19945;-71
2022/04/27 00:32:40;;;;;;;;;;;;;;;3.58;100.00;96082.63;1027409;28;19910;-69
2022/04/27 00:33:11;;;;;;;;;;;;;;;3.59;100.00;96084.19;1019040;28;20380;-70
2022/04/27 00:33:41;;;;;;;;;;;;;;;3.58;100.00;96082.63;1023229;28;20593;-72
2022/04/27 00:34:12;;;;;;;;;;;;;;;3.59;100.00;96084.19;1026923;28;19921;-69
2022/04/27 00:34:42;;;;;;;;;;;;;;;3.60;100.00;96080.63;1027723;28;19992;-69
2022/04/27 00:35:12;;;;;;;;;;;;;;;3.59;100.00;96071.22;1031125;28;19914;-71
2022/04/27 00:35:42;;;;;;;;;;;;;;;3.60;100.00;96084.00;1031379;28;20465;-71
2022/04/27 00:36:13;;;;;;;;;;;;;;;3.60;100.00;96084.00;1031300;28;19917;-69
2022/04/27 00:36:43;;;;;;;;;;;;;;;3.62;100.00;96081.19;1030579;28;20256;-71
2022/04/27 00:37:13;;;;;;;;;;;;;;;3.62;100.00;96076.81;1027236;28;19915;-69
2022/04/27 00:37:44;;;;;;;;;;;;;;;3.64;100.00;96079.97;1025782;28;19906;-66
2022/04/27 00:38:14;;;;;;;;;;;;;;;3.65;100.00;96078.19;1026728;28;20052;-69
2022/04/27 00:38:44;;;;;;;;;;;;;;;3.68;100.00;96077.75;1023345;28;20241;-71
2022/04/27 00:39:16;;;;;;;;;;;;;;;3.72;100.00;96078.91;1024496;28;19938;-69
2022/04/27 00:39:46;;;;;;;;;;;;;;;3.71;100.00;96075.53;1031359;28;19910;-69
2022/04/27 00:40:16;;;;;;;;;;;;;;;3.73;100.00;96077.94;1025730;28;19910;-70
2022/04/27 00:40:47;;;;;;;;;;;;;;;3.74;100.00;96079.53;1027413;28;19919;-71
2022/04/27 00:41:18;;;;;;;;;;;;;;;3.74;100.00;96075.13;1027406;28;19921;-71
2022/04/27 00:42:02;;;;;;;;;;;;;;;3.76;100.00;96083.50;1027507;28;19914;-69
2022/04/27 00:42:32;;;;;;;;;;;;;;;3.77;100.00;96079.09;1030696;28;19920;-69
2022/04/27 00:43:03;;;;;;;;;;;;;;;3.76;100.00;96078.31;1027401;28;20647;-70
2022/04/27 00:43:34;;;;;;;;;;;;;;;3.78;100.00;96081.47;1027216;28;19910;-69
2022/04/27 00:44:04;;;;;;;;;;;;;;;3.79;100.00;96079.69;1023539;28;20304;-71
2022/04/27 00:44:34;;;;;;;;;;;;;;;3.81;100.00;96076.88;1027144;28;19922;-69
2022/04/27 00:45:05;;;;;;;;;;;;;;;3.81;100.00;96085.44;1027589;28;19914;-71
2022/04/27 00:45:35;;;;;;;;;;;;;;;3.83;100.00;96078.25;1027639;28;19914;-71
2022/04/27 00:46:06;;;;;;;;;;;;;;;3.86;100.00;96077.84;1023131;28;19945;-71
2022/04/27 00:46:36;;;;;;;;;;;;;;;3.89;100.00;96085.22;1022658;29;19913;-71
2022/04/27 00:47:06;;;;;;;;;;;;;;;3.89;100.00;96082.63;1023226;28;19911;-71
2022/04/27 00:47:37;;;;;;;;;;;;;;;3.91;100.00;96079.78;1023340;28;19914;-71
2022/04/27 00:48:09;;;;;;;;;;;;;;;3.93;100.00;96082.97;1027732;28;19917;-71
2022/04/27 00:48:40;;;;;;;;;;;;;;;3.94;100.00;96085.34;1030977;28;19916;-71
2022/04/27 00:49:11;;;;;;;;;;;;;;;3.97;100.00;96087.53;1031604;28;19964;-71
2022/04/27 00:49:43;;;;;;;;;;;;;;;3.97;100.00;96081.53;1027382;28;20774;-71
2022/04/27 00:50:13;;;;;;;;;;;;;;;3.98;100.00;96086.50;1022941;28;19910;-71
2022/04/27 00:50:46;;;;;;;;;;;;;;;3.99;100.00;96090.72;1019055;29;19955;-71
2022/04/27 00:51:21;;;;;;;;;;;;;;;4.00;100.00;96087.09;1019352;29;19962;-71
2022/04/27 00:51:51;;;;;;;;;;;;;;;4.01;100.00;96085.31;1016257;29;20046;-70
2022/04/27 00:52:22;;;;;;;;;;;;;;;4.04;100.00;96084.09;1019515;29;20499;-70
2022/04/27 00:52:52;;;;;;;;;;;;;;;4.03;100.00;96082.50;1020183;28;20387;-71
2022/04/27 00:53:23;;;;;;;;;;;;;;;4.04;100.00;96089.28;1023134;29;19929;-71
2022/04/27 00:53:54;;;;;;;;;;;;;;;4.05;100.00;96090.88;1026210;28;19914;-71
2022/04/27 00:54:26;;;;;;;;;;;;;;;4.07;100.00;96088.84;1023411;28;20021;-71
2022/04/27 00:54:56;;;;;;;;;;;;;;;4.06;100.00;96093.25;1027601;28;19915;-72
2022/04/27 00:55:26;;;;;;;;;;;;;;;4.08;100.00;96093.03;1032762;28;19940;-72
2022/04/27 00:55:57;;;;;;;;;;;;;;;4.08;100.00;96090.44;1031417;28;20540;-72
2022/04/27 00:56:27;;;;;;;;;;;;;;;4.09;100.00;96092.03;1026354;28;19906;-71
2022/04/27 00:56:58;;;;;;;;;;;;;;;4.11;100.00;96095.22;1026894;28;19917;-71
2022/04/27 00:57:29;;;;;;;;;;;;;;;4.09;100.00;96090.25;1026836;28;19953;-70
2022/04/27 00:57:59;;;;;;;;;;;;;;;4.10;100.00;96088.44;1027545;28;19933;-70
2022/04/27 00:58:30;;;;;;;;;;;;;;;4.10;100.00;96093.63;1027092;28;20336;-71
2022/04/27 00:59:00;;;;;;;;;;;;;;;4.10;100.00;96096.22;1022950;28;19914;-70
2022/04/27 00:59:30;;;;;;;;;;;;;;;4.11;100.00;96096.00;1023583;28;19914;-71
2022/04/27 01:00:01;;;;;;;;;;;;;;;4.11;100.00;96100.41;1027302;28;19922;-70
2022/04/27 01:00:32;;;;;;;;;;;;;;;4.11;100.00;96100.41;1023124;28;19949;-71
2022/04/27 01:01:03;;;;;;;;;;;;;;;4.12;100.00;96097.59;1023041;29;20690;-69
2022/04/27 01:01:33;;;;;;;;;;;;;;;4.13;100.00;96098.41;1019583;29;19918;-70
2022/04/27 01:02:06;;;;;;;;;;;;;;;4.12;100.00;96102.78;1019420;29;19915;-70
2022/04/27 01:02:40;;;;;;;;;;;;;;;4.12;100.00;96100.19;1020705;28;19918;-71
2022/04/27 01:03:10;;;;;;;;;;;;;;;4.12;100.00;96102.00;1016098;28;19998;-71
2022/04/27 01:03:41;;;;;;;;;;;;;;;4.13;100.00;96095.81;1020028;29;19911;-71
2022/04/27 01:04:11;;;;;;;;;;;;;;;4.14;100.00;96107.78;1022561;28;19907;-71
2022/04/27 01:04:41;;;;;;;;;;;;;;;4.14;100.00;96100.78;1023431;29;19928;-71
2022/04/27 01:05:12;;;;;;;;;;;;;;;4.13;100.00;96099.19;1022968;28;20395;-71
2022/04/27 01:05:42;;;;;;;;;;;;;;;4.14;100.00;96105.97;1018996;29;19911;-68
2022/04/27 01:06:12;;;;;;;;;;;;;;;4.13;100.00;96103.59;1023547;28;20011;-71
2022/04/27 01:06:43;;;;;;;;;;;;;;;4.16;100.00;96103.19;1026562;28;20466;-69
2022/04/27 01:07:13;;;;;;;;;;;;;;;4.17;100.00;96107.34;1031132;28;20514;-72
2022/04/27 01:07:43;;;;;;;;;;;;;;;4.17;100.00;96105.53;1035275;28;19914;-70
2022/04/27 01:08:17;;;;;;;;;;;;;;;4.19;100.00;96102.72;1031264;28;19917;-71
2022/04/27 01:08:47;;;;;;;;;;;;;;;4.18;100.00;96106.34;1027280;28;19956;-71
2022/04/27 01:09:18;;;;;;;;;;;;;;;4.18;100.00;96106.34;1022819;28;20706;-71
2022/04/27 01:09:48;;;;;;;;;;;;;;;4.17;100.00;96105.53;1019725;29;19911;-71
2022/04/27 01:10:18;;;;;;;;;;;;;;;4.18;100.00;96101.13;1019476;29;19910;-71
2022/04/27 01:10:49;;;;;;;;;;;;;;;4.17;100.00;96100.34;1015114;29;19994;-71
2022/04/27 01:11:19;;;;;;;;;;;;;;;4.19;100.00;96108.75;1023193;29;20050;-72
2022/04/27 01:11:49;;;;;;;;;;;;;;;4.18;100.00;96101.13;1019162;29;19918;-71
2022/04/27 01:12:20;;;;;;;;;;;;;;;4.18;100.00;96101.13;1018270;29;19982;-71
2022/04/27 01:12:50;;;;;;;;;;;;;;;4.20;100.00;96102.53;1019430;29;19910;-71
2022/04/27 01:13:20;;;;;;;;;;;;;;;4.23;100.00;96103.91;1015240;29;20001;-71
2022/04/27 01:13:51;;;;;;;;;;;;;;;4.24;100.00;96100.28;1023244;29;19921;-71
2022/04/27 01:14:22;;;;;;;;;;;;;;;4.22;100.00;96103.09;1022756;28;19925;-71
2022/04/27 01:14:52;;;;;;;;;;;;;;;4.21;100.00;96100.72;1027464;28;19910;-71
2022/04/27 01:15:32;;;;;;;;;;;;;;;4.22;100.00;96097.91;1030965;28;20450;-70
2022/04/27 01:16:03;;;;;;;;;;;;;;;4.22;100.00;96103.09;1028390;28;19953;-71
2022/04/27 01:16:33;;;;;;;;;;;;;;;4.23;100.00;96106.50;1026625;28;19932;-70
2022/04/27 01:17:04;;;;;;;;;;;;;;;4.21;100.00;96104.09;1021661;29;19911;-71
2022/04/27 01:17:34;;;;;;;;;;;;;;;4.22;100.00;96108.28;1022853;28;19914;-72
2022/04/27 01:18:04;;;;;;;;;;;;;;;4.23;100.00;96098.72;1023247;28;20345;-70
2022/04/27 01:18:35;;;;;;;;;;;;;;;4.24;100.00;96105.50;1031184;28;19916;-71
2022/04/27 01:19:05;;;;;;;;;;;;;;;4.22;100.00;96103.09;1030603;28;19976;-71
2022/04/27 01:19:38;;;;;;;;;;;;;;;4.24;100.00;96105.50;1023406;29;20019;-71
2022/04/27 01:20:09;;;;;;;;;;;;;;;4.23;100.00;96107.28;1023174;28;20434;-72
2022/04/27 01:20:44;;;;;;;;;;;;;;;4.23;100.00;96101.31;1023739;28;19915;-71
2022/04/27 01:21:14;;;;;;;;;;;;;;;4.23;100.00;96103.91;1026064;28;19918;-71
2022/04/27 01:21:45;;;;;;;;;;;;;;;4.23;100.00;96114.31;1023066;29;20169;-72
2022/04/27 01:22:15;;;;;;;;;;;;;;;4.25;100.00;96107.06;1023730;28;19920;-69
2022/04/27 01:22:45;;;;;;;;;;;;;;;4.26;100.00;96100.88;1029621;28;19942;-71
2022/04/27 01:23:16;;;;;;;;;;;;;;;4.22;100.00;96108.28;1027040;28;19910;-69
2022/04/27 01:23:46;;;;;;;;;;;;;;;4.24;100.00;96105.50;1023403;29;20414;-69
2022/04/27 01:24:17;;;;;;;;;;;;;;;4.23;100.00;96106.50;1023193;28;19914;-71
2022/04/27 01:24:49;;;;;;;;;;;;;;;4.23;100.00;96109.09;1022879;28;19911;-72
2022/04/27 01:25:19;;;;;;;;;;;;;;;4.24;100.00;96105.50;1023301;29;20610;-72
2022/04/27 01:25:50;;;;;;;;;;;;;;;4.22;100.00;96103.09;1023137;28;19915;-72
2022/04/27 01:26:21;;;;;;;;;;;;;;;4.23;100.00;96109.09;1026701;28;19910;-71
2022/04/27 01:26:52;;;;;;;;;;;;;;;4.24;100.00;96100.28;1027236;28;19910;-71
2022/04/27 01:27:22;;;;;;;;;;;;;;;4.26;100.00;96106.09;1031022;28;20427;-71
2022/04/27 01:27:52;;;;;;;;;;;;;;;4.27;100.00;96104.28;1031314;28;19920;-70
2022/04/27 01:28:23;;;;;;;;;;;;;;;4.28;100.00;96098.84;1027884;28;19910;-69
2022/04/27 01:28:54;;;;;;;;;;;;;;;4.26;100.00;96103.50;1027069;28;19921;-69
2022/04/27 01:29:25;;;;;;;;;;;;;;;4.26;100.00;96103.50;1027189;28;19917;-71
2022/04/27 01:29:55;;;;;;;;;;;;;;;4.25;100.00;96104.47;1021486;28;19910;-70
2022/04/27 01:30:26;;;;;;;;;;;;;;;4.24;100.00;96106.28;1027421;28;19914;-71
2022/04/27 01:30:57;;;;;;;;;;;;;;;4.24;100.00;96102.91;1027374;28;19914;-70
2022/04/27 01:31:27;;;;;;;;;;;;;;;4.27;100.00;96104.28;1029585;28;19936;-69
2022/04/27 01:32:00;;;;;;;;;;;;;;;4.27;100.00;96101.69;1030855;28;19996;-69
2022/04/27 01:32:30;;;;;;;;;;;;;;;3.93;100.00;96055.22;1022833;29;19910;-70
2022/04/27 01:33:03;;;;;;;;;;;;;;;4.29;100.00;96105.63;1023704;28;19915;-71
2022/04/27 01:33:34;;;;;;;;;;;;;;;4.30;100.00;96103.84;1023025;28;19911;-70
2022/04/27 01:34:04;;;;;;;;;;;;;;;4.29;100.00;96104.84;1019790;29;19922;-69
2022/04/27 01:34:34;;;;;;;;;;;;;;;4.27;100.00;96110.25;1023188;29;19914;-70
2022/04/27 01:35:05;;;;;;;;;;;;;;;4.29;100.00;96104.84;1022948;28;19907;-69
2022/04/27 01:35:36;;;;;;;;;;;;;;;4.28;100.00;96101.44;1027167;28;19910;-69
2022/04/27 01:36:06;;;;;;;;;;;;;;;4.29;100.00;96107.44;1027153;28;20271;-70
2022/04/27 01:36:37;;;;;;;;;;;;;;;4.30;100.00;96102.03;1018851;28;19915;-69
2022/04/27 01:38:00;;;;;;;;;;;;;;;4.28;100.00;96101.44;1021443;29;19911;-70
2022/04/27 01:38:33;;;;;;;;;;;;;;;4.31;100.00;96101.03;1025509;28;20009;-69
2022/04/27 01:39:04;;;;;;;;;;;;;;;4.31;100.00;96101.03;1023273;29;20346;-69
2022/04/27 01:39:35;;;;;;;;;;;;;;;4.32;100.00;96104.41;1019823;29;20010;-70
2022/04/27 01:40:06;;;;;;;;;;;;;;;4.34;100.00;96102.41;1019201;29;19958;-69
2022/04/27 01:40:37;;;;;;;;;;;;;;;4.34;100.00;96100.59;1019958;29;19910;-70
2022/04/27 01:41:07;;;;;;;;;;;;;;;4.34;100.00;96100.59;1022515;28;19915;-71
2022/04/27 01:41:37;;;;;;;;;;;;;;;4.34;100.00;96111.00;1019436;28;20448;-68
2022/04/27 01:42:07;;;;;;;;;;;;;;;4.34;100.00;96095.41;1023133;29;19915;-72
2022/04/27 01:42:38;;;;;;;;;;;;;;;4.33;100.00;96104.22;1026767;28;19961;-71
2022/04/27 01:43:08;;;;;;;;;;;;;;;4.35;100.00;96104.00;1027085;28;20680;-71
2022/04/27 01:43:38;;;;;;;;;;;;;;;4.34;100.00;96102.41;1030761;28;19925;-71
2022/04/27 01:44:09;;;;;;;;;;;;;;;4.36;100.00;96101.19;1027317;28;19917;-71
2022/04/27 01:44:39;;;;;;;;;;;;;;;4.36;100.00;96108.16;1026943;28;20359;-71
2022/04/27 01:45:12;;;;;;;;;;;;;;;4.34;100.00;96113.59;1026976;28;19957;-71
2022/04/27 01:45:43;;;;;;;;;;;;;;;4.31;100.00;96108.81;1024486;28;20303;-70
2022/04/27 01:46:13;;;;;;;;;;;;;;;4.31;100.00;96102.84;1027137;28;19921;-71
2022/04/27 01:46:43;;;;;;;;;;;;;;;4.32;100.00;96104.41;1026178;28;20458;-71
2022/04/27 01:47:14;;;;;;;;;;;;;;;4.31;100.00;96108.03;1027088;28;19956;-72
2022/04/27 01:47:44;;;;;;;;;;;;;;;4.30;100.00;96109.84;1030873;28;19906;-71
2022/04/27 01:48:14;;;;;;;;;;;;;;;4.33;100.00;96106.81;1031176;28;19920;-71
2022/04/27 01:48:45;;;;;;;;;;;;;;;4.31;100.00;96098.44;1028232;28;19918;-71
2022/04/27 01:49:15;;;;;;;;;;;;;;;4.32;100.00;96115.59;1028314;28;19910;-71
2022/04/27 01:49:45;;;;;;;;;;;;;;;4.32;100.00;96107.81;1023103;29;19910;-72
2022/04/27 01:50:16;;;;;;;;;;;;;;;4.32;100.00;96107.00;1027044;28;19914;-71
2022/04/27 01:50:49;;;;;;;;;;;;;;;4.34;100.00;96111.00;1026943;28;19914;-70
2022/04/27 01:54:14;;;;;;;;;;;;;;;4.32;100.00;96105.22;1027643;28;19914;-72
2022/04/27 01:54:36;;;;;;;;;;;;;;;4.35;100.00;96111.78;1023644;29;19926;-71
2022/04/27 01:55:07;;;;;;;;;;;;;;;4.34;100.00;96113.59;1023848;29;19923;-71
2022/04/27 01:55:37;;;;;;;;;;;;;;;4.35;100.00;96112.56;1027280;28;20494;-71
2022/04/27 01:56:08;;;;;;;;;;;;;;;4.34;100.00;96110.19;1030038;28;20276;-72
2022/04/27 01:56:38;;;;;;;;;;;;;;;4.35;100.00;96109.97;1031038;28;19924;-71
2022/04/27 01:57:08;;;;;;;;;;;;;;;4.34;100.00;96116.19;1027084;28;19925;-71
2022/04/27 01:57:39;;;;;;;;;;;;;;;4.33;100.00;96117.22;1027930;28;19910;-71
2022/04/27 01:58:09;;;;;;;;;;;;;;;4.33;100.00;96114.59;1027891;28;19918;-71
2022/04/27 01:58:39;;;;;;;;;;;;;;;4.34;100.00;96115.41;1028097;28;19936;-71
2022/04/27 01:59:10;;;;;;;;;;;;;;;4.35;100.00;96114.38;1035900;28;19929;-72
2022/04/27 01:59:41;;;;;;;;;;;;;;;4.34;100.00;96111.00;1027864;28;19914;-71
2022/04/27 02:00:13;;;;;;;;;;;;;;;4.36;100.00;96113.38;1027887;28;19922;-72
2022/04/27 02:00:47;;;;;;;;;;;;;;;4.33;100.00;96114.59;1023955;28;19921;-69
2022/04/27 02:01:18;;;;;;;;;;;;;;;4.35;100.00;96109.97;1019866;29;20574;-73
2022/04/27 02:01:48;;;;;;;;;;;;;;;4.36;100.00;96113.38;1015932;29;19923;-71
2022/04/27 02:02:18;;;;;;;;;;;;;;;4.35;100.00;96112.56;1018405;29;19923;-71
2022/04/27 02:02:49;;;;;;;;;;;;;;;4.34;100.00;96113.59;1020507;28;19919;-71
2022/04/27 02:03:20;;;;;;;;;;;;;;;4.37;100.00;96117.56;1023989;28;19922;-70
2022/04/27 02:03:53;;;;;;;;;;;;;;;4.35;100.00;96112.56;1027506;28;20323;-70
2022/04/27 02:04:24;;;;;;;;;;;;;;;4.35;100.00;96115.16;1027812;28;19969;-69
2022/04/27 02:04:54;;;;;;;;;;;;;;;4.34;100.00;96116.19;1028650;28;20381;-72
2022/04/27 02:05:26;;;;;;;;;;;;;;;4.35;100.00;96120.38;1028350;28;20535;-70
2022/04/27 02:05:57;;;;;;;;;;;;;;;4.34;100.00;96116.19;1023905;29;19922;-72
2022/04/27 02:06:28;;;;;;;;;;;;;;;4.35;100.00;96120.38;1023215;29;19918;-69
2022/04/27 02:06:59;;;;;;;;;;;;;;;4.36;100.00;96126.34;1019783;29;19930;-69
2022/04/27 02:07:29;;;;;;;;;;;;;;;4.34;100.00;96121.38;1023251;28;19925;-70
2022/04/27 02:08:02;;;;;;;;;;;;;;;4.34;100.00;96120.59;1031943;28;19940;-69
2022/04/27 02:08:32;;;;;;;;;;;;;;;4.34;100.00;96120.59;1032004;28;19917;-70
2022/04/27 02:09:03;;;;;;;;;;;;;;;4.34;100.00;96123.19;1031970;28;20022;-69
2022/04/27 02:09:34;;;;;;;;;;;;;;;4.34;100.00;96118.78;1027719;28;19922;-72
2022/04/27 02:10:05;;;;;;;;;;;;;;;4.36;100.00;96116.78;1027666;28;19922;-72
2022/04/27 02:10:36;;;;;;;;;;;;;;;4.36;100.00;96118.56;1027733;28;19918;-71
2022/04/27 02:11:06;;;;;;;;;;;;;;;4.34;100.00;96116.19;1027711;28;19969;-72
2022/04/27 02:11:36;;;;;;;;;;;;;;;4.34;100.00;96116.19;1031287;28;19922;-71
2022/04/27 02:12:10;;;;;;;;;;;;;;;4.36;100.00;96119.38;1031712;28;19922;-71
2022/04/27 02:12:41;;;;;;;;;;;;;;;4.34;100.00;96121.38;1027713;28;19925;-71
2022/04/27 02:13:11;;;;;;;;;;;;;;;4.34;100.00;96116.19;1027873;28;19922;-71
2022/04/27 02:13:44;;;;;;;;;;;;;;;4.33;100.00;96119.81;1028033;28;19949;-71
2022/04/27 02:14:14;;;;;;;;;;;;;;;4.32;100.00;96115.59;1029309;28;19928;-69
2022/04/27 02:14:44;;;;;;;;;;;;;;;4.30;100.00;96115.03;1027743;28;20343;-71
2022/04/27 02:15:15;;;;;;;;;;;;;;;4.29;100.00;96113.41;1027866;28;19922;-70
2022/04/27 02:15:45;;;;;;;;;;;;;;;4.28;100.00;96117.03;1024849;28;19919;-69
2022/04/27 02:16:16;;;;;;;;;;;;;;;4.28;100.00;96119.63;1027741;28;19937;-70
2022/04/27 02:16:46;;;;;;;;;;;;;;;4.27;100.00;96117.25;1027014;28;19921;-72
2022/04/27 02:17:16;;;;;;;;;;;;;;;4.24;100.00;96121.88;1028136;28;19925;-71
2022/04/27 02:17:48;;;;;;;;;;;;;;;4.22;100.00;96117.88;1031591;28;19961;-71
2022/04/27 02:18:19;;;;;;;;;;;;;;;4.20;100.00;96114.72;1027846;28;19922;-72
2022/04/27 02:18:49;;;;;;;;;;;;;;;4.18;100.00;96114.91;1023744;29;20518;-71
2022/04/27 02:19:21;;;;;;;;;;;;;;;4.15;100.00;96117.16;1023657;28;19946;-72
2022/04/27 02:19:51;;;;;;;;;;;;;;;4.13;100.00;96113.97;1024265;28;20013;-71
2022/04/27 02:20:25;;;;;;;;;;;;;;;4.11;100.00;96116.78;1023909;28;19925;-71
2022/04/27 02:20:58;;;;;;;;;;;;;;;4.07;100.00;96120.03;1029316;28;19919;-71
2022/04/27 02:21:28;;;;;;;;;;;;;;;4.05;100.00;96119.44;1031816;28;20017;-72
2022/04/27 02:21:59;;;;;;;;;;;;;;;4.01;100.00;96121.66;1031110;28;19914;-71
2022/04/27 02:22:33;;;;;;;;;;;;;;;3.99;100.00;96119.28;1023935;28;19918;-72
2022/04/27 02:23:04;;;;;;;;;;;;;;;3.97;100.00;96116.09;1023716;29;19918;-71
2022/04/27 02:23:34;;;;;;;;;;;;;;;3.94;100.00;96121.69;1023792;29;20304;-69
2022/04/27 02:24:10;;;;;;;;;;;;;;;3.93;100.00;96122.72;1023849;28;20031;-72
2022/04/27 02:24:41;;;;;;;;;;;;;;;3.90;100.00;96115.34;1025174;28;20404;-71
2022/04/27 02:25:11;;;;;;;;;;;;;;;3.87;100.00;96123.56;1028605;28;20000;-71
2022/04/27 02:25:41;;;;;;;;;;;;;;;3.88;100.00;96127.72;1028679;28;19918;-70
2022/04/27 02:26:12;;;;;;;;;;;;;;;3.85;100.00;96128.16;1027755;28;19922;-71
2022/04/27 02:26:45;;;;;;;;;;;;;;;3.83;100.00;96124.19;1027027;28;20299;-71
2022/04/27 02:27:15;;;;;;;;;;;;;;;3.81;100.00;96126.19;1024098;28;20017;-68
2022/04/27 02:27:46;;;;;;;;;;;;;;;3.80;100.00;96128.00;1016084;29;19927;-71
2022/04/27 02:28:19;;;;;;;;;;;;;;;3.78;100.00;96124.81;1015974;29;19923;-71
2022/04/27 02:28:50;;;;;;;;;;;;;;;3.80;100.00;96119.41;1019630;29;19944;-71
2022/04/27 02:29:21;;;;;;;;;;;;;;;3.77;100.00;96123.22;1021674;28;19969;-71
2022/04/27 02:29:51;;;;;;;;;;;;;;;3.79;100.00;96129.00;1031092;28;19918;-72
2022/04/27 02:30:25;;;;;;;;;;;;;;;3.76;100.00;96129.44;1027632;28;19972;-71
2022/04/27 02:30:55;;;;;;;;;;;;;;;3.76;100.00;96124.22;1020034;29;19921;-72
2022/04/27 02:31:27;;;;;;;;;;;;;;;3.78;100.00;96125.59;1019597;28;19925;-71
2022/04/27 02:31:57;;;;;;;;;;;;;;;3.76;100.00;96124.22;1020669;29;19934;-71
2022/04/27 02:32:28;;;;;;;;;;;;;;;3.74;100.00;96127.03;1024202;28;19973;-70
2022/04/27 02:33:02;;;;;;;;;;;;;;;3.76;100.00;96125.03;1023869;28;19973;-71
2022/04/27 02:33:33;;;;;;;;;;;;;;;3.79;100.00;96126.41;1023753;28;19922;-72
2022/04/27 02:34:03;;;;;;;;;;;;;;;3.82;100.00;96125.19;1023699;29;20497;-71
2022/04/27 02:34:33;;;;;;;;;;;;;;;3.83;100.00;96130.16;1024365;28;19930;-71
2022/04/27 02:35:06;;;;;;;;;;;;;;;3.86;100.00;96126.38;1030072;28;19922;-71
2022/04/27 02:35:37;;;;;;;;;;;;;;;3.86;100.00;96129.75;1027790;28;19918;-71
2022/04/27 02:36:07;;;;;;;;;;;;;;;3.86;100.00;96129.75;1027982;28;19914;-72
2022/04/27 02:36:37;;;;;;;;;;;;;;;3.92;100.00;96122.91;1026838;28;19926;-72
2022/04/27 02:37:10;;;;;;;;;;;;;;;3.94;100.00;96126.09;1027506;28;19918;-71
2022/04/27 02:37:41;;;;;;;;;;;;;;;3.96;100.00;96130.09;1031532;28;19950;-71
2022/04/27 02:38:11;;;;;;;;;;;;;;;3.97;100.00;96123.88;1024132;28;19918;-71
2022/04/27 02:38:41;;;;;;;;;;;;;;;3.65;100.00;96075.59;1027412;28;19922;-72
2022/04/27 02:39:11;;;;;;;;;;;;;;;4.00;100.00;96131.25;1027777;28;19922;-71
2022/04/27 02:39:42;;;;;;;;;;;;;;;4.03;100.00;96130.03;1023487;29;19957;-71
2022/04/27 02:40:12;;;;;;;;;;;;;;;4.05;100.00;96129.81;1018077;29;20428;-72
2022/04/27 02:40:43;;;;;;;;;;;;;;;4.08;100.00;96127.59;1019723;29;19915;-68
2022/04/27 02:41:13;;;;;;;;;;;;;;;4.11;100.00;96131.56;1019738;29;19923;-71
2022/04/27 02:41:44;;;;;;;;;;;;;;;4.12;100.00;96133.16;1023731;28;19973;-71
2022/04/27 02:42:17;;;;;;;;;;;;;;;4.12;100.00;96127.97;1031924;28;19917;-71
2022/04/27 02:42:49;;;;;;;;;;;;;;;4.13;100.00;96137.34;1031643;28;19918;-72
2022/04/27 02:43:19;;;;;;;;;;;;;;;4.13;100.00;96132.16;1031629;28;19937;-69
2022/04/27 02:43:49;;;;;;;;;;;;;;;4.14;100.00;96131.16;1027566;28;19926;-70
2022/04/27 02:44:23;;;;;;;;;;;;;;;4.14;100.00;96131.16;1020120;29;19911;-71